createdAt,value
2023-03-22T00:01:21.819Z,99.90
2023-03-22T00:03:51.698Z,99.90
2023-03-22T00:06:19.881Z,99.90
2023-03-22T00:08:51.744Z,99.90
2023-03-22T00:11:20.703Z,99.90
2023-03-22T00:13:48.881Z,99.90
2023-03-22T00:16:17.667Z,99.90
2023-03-22T00:18:47.263Z,99.90
2023-03-22T00:21:17.204Z,99.90
2023-03-22T00:23:46.340Z,99.90
2023-03-22T00:26:15.613Z,99.90
2023-03-22T09:27:46.406Z,68.50
2023-03-22T09:30:14.779Z,67.70
2023-03-22T09:32:42.879Z,67.70
2023-03-22T09:35:11.038Z,67.30
2023-03-22T09:37:39.400Z,65.10
2023-03-22T09:40:09.305Z,63.50
2023-03-22T09:42:39.817Z,61.60
2023-03-22T09:45:16.027Z,61.20
2023-03-22T09:47:47.590Z,59.20
2023-03-22T09:50:20.105Z,58.70
2023-03-22T09:52:48.746Z,55.70
2023-03-22T09:55:26.922Z,53.90
2023-03-22T09:58:03.928Z,52.00
2023-03-22T10:00:42.526Z,51.70
2023-03-22T10:03:22.874Z,50.20
2023-03-22T10:05:58.693Z,50.60
2023-03-22T10:08:38.054Z,49.60
2023-03-22T10:11:16.091Z,49.10
2023-03-22T10:13:52.412Z,50.00
2023-03-22T10:16:29.404Z,48.90
2023-03-22T10:19:04.486Z,48.70
2023-03-22T10:21:34.576Z,48.30
2023-03-22T10:24:07.705Z,49.80
2023-03-22T10:26:40.558Z,48.40
2023-03-22T10:29:14.899Z,47.80
2023-03-22T10:31:46.367Z,46.60
2023-03-22T10:34:21.154Z,46.30
2023-03-22T10:36:51.650Z,45.50
2023-03-22T10:39:28.382Z,45.00
2023-03-22T10:42:00.458Z,44.00
2023-03-22T10:44:31.071Z,43.20
2023-03-22T10:47:07.396Z,42.80
2023-03-22T10:49:39.507Z,43.10
2023-03-22T10:52:21.146Z,43.40
2023-03-22T10:54:49.419Z,41.60
2023-03-22T10:57:17.496Z,40.60
2023-03-22T10:59:48.164Z,41.00
2023-03-22T11:02:23.518Z,41.50
2023-03-22T11:04:54.513Z,40.90
2023-03-22T11:07:32.881Z,41.10
2023-03-22T11:10:22.222Z,41.10
2023-03-22T11:12:52.574Z,41.30
2023-03-22T11:15:31.951Z,41.70
2023-03-22T11:18:05.609Z,41.70
2023-03-22T11:20:35.037Z,41.60
2023-03-22T11:23:06.915Z,41.40
2023-03-22T11:25:37.777Z,41.60
2023-03-22T11:28:11.259Z,42.80
2023-03-22T11:30:40.032Z,43.60
2023-03-22T11:33:18.623Z,45.00
2023-03-22T11:35:48.764Z,46.20
2023-03-22T11:38:30.540Z,47.30
2023-03-22T11:41:02.527Z,49.20
2023-03-22T11:43:36.040Z,50.40
2023-03-22T11:46:05.858Z,51.80
2023-03-22T11:48:36.829Z,52.60
2023-03-22T11:51:12.451Z,53.20
2023-03-22T11:53:43.665Z,53.80
2023-03-22T11:56:14.610Z,54.10
2023-03-22T11:58:55.099Z,54.80
2023-03-22T12:01:32.920Z,56.20
2023-03-22T12:04:05.060Z,57.20
2023-03-22T12:06:36.798Z,56.30
2023-03-22T12:09:08.185Z,56.70
2023-03-22T12:11:41.289Z,57.40
2023-03-22T12:14:17.902Z,57.90
2023-03-22T12:16:49.277Z,58.20
2023-03-22T12:19:27.254Z,59.20
2023-03-22T12:21:56.764Z,59.00
2023-03-22T12:24:28.051Z,58.70
2023-03-22T12:27:01.468Z,59.10
2023-03-22T12:29:30.155Z,59.50
2023-03-22T12:32:03.689Z,59.10
2023-03-22T12:34:41.970Z,59.60
2023-03-22T12:37:15.277Z,58.80
2023-03-22T12:39:50.253Z,59.20
2023-03-22T12:42:24.503Z,59.50
2023-03-22T12:45:04.598Z,60.10
2023-03-22T12:47:41.615Z,59.60
2023-03-22T12:50:15.630Z,60.10
2023-03-22T12:52:48.103Z,61.00
2023-03-22T12:55:25.041Z,59.40
2023-03-22T12:57:54.797Z,59.10
2023-03-22T13:00:28.572Z,59.10
2023-03-22T13:03:01.472Z,59.20
2023-03-22T13:05:35.208Z,60.10
2023-03-22T13:08:05.577Z,60.50
2023-03-22T13:11:03.725Z,60.90
2023-03-22T13:13:45.842Z,61.20
2023-03-22T13:16:25.501Z,61.10
2023-03-22T13:19:17.968Z,61.10
2023-03-22T13:21:50.245Z,62.00
2023-03-22T13:24:23.462Z,60.90
2023-03-22T13:26:53.560Z,60.60
2023-03-22T13:29:24.449Z,61.50
2023-03-22T13:31:58.881Z,60.20
2023-03-22T13:34:39.375Z,59.90
2023-03-22T13:37:18.744Z,58.80
2023-03-22T13:39:51.993Z,58.80
2023-03-22T13:42:22.854Z,57.40
2023-03-22T13:44:58.534Z,58.20
2023-03-22T13:47:36.672Z,57.60
2023-03-22T13:50:12.482Z,58.10
2023-03-22T13:52:45.044Z,58.70
2023-03-22T13:55:32.757Z,58.50
2023-03-22T13:58:01.853Z,58.30
2023-03-22T14:00:48.644Z,58.30
2023-03-22T14:03:25.461Z,58.90
2023-03-22T14:06:10.157Z,59.60
2023-03-22T14:08:41.724Z,58.90
2023-03-22T14:11:21.764Z,57.90
2023-03-22T14:13:52.344Z,58.50
2023-03-22T14:16:27.618Z,57.80
2023-03-22T14:18:56.978Z,58.40
2023-03-22T14:21:33.891Z,57.30
